createdAt,value
2016-03-26T00:00:10.904Z,6.64
2016-03-26T00:01:10.907Z,6.62
2016-03-26T00:02:10.909Z,6.62
2016-03-26T00:03:10.897Z,6.54
2016-03-26T00:04:10.899Z,6.64
2016-03-26T00:05:10.903Z,6.64
2016-03-26T00:06:10.905Z,6.6
2016-03-26T00:07:10.908Z,6.59
2016-03-26T00:08:10.895Z,6.5
2016-03-26T00:09:10.913Z,6.49
2016-03-26T00:10:10.900Z,6.52
2016-03-26T00:11:10.919Z,6.56
2016-03-26T00:12:10.905Z,6.65
2016-03-26T00:13:10.908Z,6.59
2016-03-26T00:14:10.911Z,6.49
2016-03-26T00:15:10.913Z,6.54
2016-03-26T00:16:10.916Z,6.53
2016-03-26T00:17:10.919Z,6.52
2016-03-26T00:18:10.749Z,6.54
2016-03-26T00:19:10.908Z,6.53
2016-03-26T00:20:10.911Z,6.53
2016-03-26T00:21:10.913Z,6.5
2016-03-26T00:22:10.916Z,6.54
2016-03-26T00:23:10.918Z,6.47
2016-03-26T00:24:10.921Z,6.52
2016-03-26T00:25:10.940Z,6.52
2016-03-26T00:26:10.912Z,6.57
2016-03-26T00:27:10.915Z,6.53
2016-03-26T00:28:10.917Z,6.49
2016-03-26T00:29:10.920Z,6.52
2016-03-26T00:30:10.969Z,6.65
2016-03-26T00:31:10.925Z,6.53
2016-03-26T00:32:10.912Z,6.64
2016-03-26T00:33:10.914Z,6.64
2016-03-26T00:34:10.917Z,6.64
2016-03-26T00:35:10.920Z,6.65
2016-03-26T00:36:10.923Z,6.71
2016-03-26T00:37:10.925Z,6.7
2016-03-26T00:38:10.929Z,6.71
2016-03-26T00:39:10.916Z,6.7
2016-03-26T00:40:10.933Z,6.71
2016-03-26T00:41:10.921Z,6.7
2016-03-26T00:42:10.912Z,6.64
2016-03-26T00:43:10.914Z,6.71
2016-03-26T00:44:10.917Z,6.65
2016-03-26T00:45:10.920Z,6.64
2016-03-26T00:46:10.907Z,6.67
2016-03-26T00:47:10.925Z,6.59
2016-03-26T00:48:10.912Z,6.65
2016-03-26T00:49:10.915Z,6.52
2016-03-26T00:50:10.917Z,6.59
2016-03-26T00:51:10.905Z,6.52
2016-03-26T00:52:10.907Z,6.6
2016-03-26T00:53:10.911Z,6.52
2016-03-26T00:54:10.913Z,6.65
2016-03-26T00:55:10.916Z,6.6
2016-03-26T00:56:10.918Z,6.56
2016-03-26T00:57:10.905Z,6.59
2016-03-26T00:58:10.908Z,6.68
2016-03-26T00:59:10.911Z,6.62
2016-03-26T01:00:10.913Z,6.65
2016-03-26T01:01:10.916Z,6.75
2016-03-26T01:02:10.903Z,6.71
2016-03-26T01:03:10.922Z,6.72
2016-03-26T01:04:10.908Z,6.75
2016-03-26T01:05:10.910Z,6.77
2016-03-26T01:06:10.913Z,6.77
2016-03-26T01:07:10.605Z,6.77
2016-03-26T01:08:10.904Z,6.75
2016-03-26T01:09:10.922Z,6.83
2016-03-26T01:10:10.925Z,6.85
2016-03-26T01:11:10.912Z,6.87
2016-03-26T01:12:10.806Z,6.89
2016-03-26T01:13:10.934Z,6.95
2016-03-26T01:14:10.921Z,6.92
2016-03-26T01:15:10.924Z,6.92
2016-03-26T01:16:10.911Z,6.95
2016-03-26T01:17:10.929Z,6.95
2016-03-26T01:18:10.915Z,6.93
2016-03-26T01:19:10.918Z,6.89
2016-03-26T01:20:10.937Z,6.89
2016-03-26T01:21:10.924Z,6.95
2016-03-26T01:22:10.926Z,6.96
2016-03-26T01:23:10.929Z,7
2016-03-26T01:24:10.917Z,6.95
2016-03-26T01:25:10.919Z,6.96
2016-03-26T01:26:10.922Z,6.97
2016-03-26T01:27:10.925Z,7
2016-03-26T01:28:10.927Z,6.97
2016-03-26T01:29:10.914Z,7.07
2016-03-26T01:30:10.917Z,7.08
2016-03-26T01:31:10.920Z,7.13
2016-03-26T01:32:10.907Z,7.04
2016-03-26T01:33:10.924Z,7.07
2016-03-26T01:34:10.928Z,7.07
2016-03-26T01:35:10.930Z,7.1
2016-03-26T01:36:10.917Z,7.07
2016-03-26T01:37:10.935Z,7.08
2016-03-26T01:38:10.938Z,7.11
2016-03-26T01:39:10.925Z,7.11
2016-03-26T01:40:10.927Z,7.19
2016-03-26T01:41:10.916Z,7.11
2016-03-26T01:42:10.840Z,7.14
2016-03-26T01:43:10.921Z,7.11
2016-03-26T01:44:10.924Z,7.08
2016-03-26T01:45:10.927Z,7.15
2016-03-26T01:46:10.929Z,7.18
2016-03-26T01:47:10.915Z,7.11
2016-03-26T01:48:10.934Z,7.14
2016-03-26T01:49:10.921Z,7.19
2016-03-26T01:50:10.940Z,7.18
2016-03-26T01:51:10.926Z,7.18
2016-03-26T01:52:10.929Z,7.21
2016-03-26T01:53:10.932Z,7.18
2016-03-26T01:54:10.934Z,7.19
2016-03-26T01:55:10.937Z,7.21
2016-03-26T01:56:10.924Z,7.18
2016-03-26T01:57:10.989Z,7.18
2016-03-26T01:58:10.976Z,7.21
2016-03-26T01:59:10.931Z,7.11
2016-03-26T02:00:10.950Z,7.19
2016-03-26T02:01:10.938Z,7.18
2016-03-26T02:02:10.940Z,7.13
2016-03-26T02:03:10.928Z,7.11
2016-03-26T02:04:10.946Z,7.13
2016-03-26T02:05:10.933Z,7.1
2016-03-26T02:06:10.951Z,7.11
2016-03-26T02:07:10.938Z,7.14
2016-03-26T02:08:10.925Z,7.14
2016-03-26T02:09:10.944Z,7.19
2016-03-26T02:10:10.930Z,7.14
2016-03-26T02:11:10.933Z,7.15
2016-03-26T02:12:10.999Z,7.18
2016-03-26T02:13:10.939Z,7.15
2016-03-26T02:14:10.926Z,7.18
2016-03-26T02:15:10.944Z,7.08
2016-03-26T02:16:10.932Z,7.18
2016-03-26T02:17:10.950Z,7.18
2016-03-26T02:18:10.921Z,7.11
2016-03-26T02:19:10.924Z,7.14
2016-03-26T02:20:10.926Z,7.18
2016-03-26T02:21:10.929Z,7.08
2016-03-26T02:22:10.932Z,7.1
2016-03-26T02:23:10.918Z,7.15
2016-03-26T02:24:10.921Z,7.11
2016-03-26T02:25:10.923Z,7.18
2016-03-26T02:26:10.926Z,7.08
2016-03-26T02:27:10.945Z,7.05
2016-03-26T02:28:10.932Z,7.05
2016-03-26T02:29:10.920Z,7.1
2016-03-26T02:30:10.923Z,7.1
2016-03-26T02:31:10.925Z,7.07
2016-03-26T02:32:10.928Z,7.08
2016-03-26T02:33:10.930Z,7.11
2016-03-26T02:34:10.933Z,7.08
2016-03-26T02:35:10.935Z,7.11
2016-03-26T02:36:10.922Z,7.1
2016-03-26T02:37:10.925Z,7.1
2016-03-26T02:38:10.943Z,7.13
2016-03-26T02:39:10.947Z,7.1
2016-03-26T02:40:10.933Z,7.21
2016-03-26T02:41:10.920Z,7.13
2016-03-26T02:42:11.001Z,7.1
2016-03-26T02:43:10.941Z,7.08
2016-03-26T02:44:10.928Z,7.14
2016-03-26T02:45:10.791Z,7.13
2016-03-26T02:46:10.933Z,7.15
2016-03-26T02:47:10.936Z,7.13
2016-03-26T02:48:10.939Z,7.18
2016-03-26T02:49:10.926Z,7.19
2016-03-26T02:50:10.929Z,7.15
2016-03-26T02:51:10.931Z,7.11
2016-03-26T02:52:10.935Z,7.19
2016-03-26T02:53:10.937Z,7.21
2016-03-26T02:54:10.940Z,7.11
2016-03-26T02:55:10.943Z,7.14
2016-03-26T02:56:10.929Z,7.11
2016-03-26T02:57:11.073Z,7.11
2016-03-26T02:58:10.935Z,7.1
2016-03-26T02:59:10.922Z,7.04
2016-03-26T03:00:10.940Z,7.1
2016-03-26T03:01:10.928Z,6.96
2016-03-26T03:02:10.946Z,7
2016-03-26T03:03:10.933Z,6.93
2016-03-26T03:04:10.936Z,6.97
2016-03-26T03:05:10.923Z,7.03
2016-03-26T03:06:10.941Z,6.97
2016-03-26T03:07:10.959Z,6.96
2016-03-26T03:08:10.931Z,7.07
2016-03-26T03:09:10.949Z,6.92
2016-03-26T03:10:10.936Z,6.97
2016-03-26T03:11:10.938Z,7
2016-03-26T03:12:10.942Z,7
2016-03-26T03:13:10.944Z,6.95
2016-03-26T03:14:10.930Z,6.96
2016-03-26T03:15:10.933Z,6.87
2016-03-26T03:16:10.936Z,6.96
2016-03-26T03:17:10.955Z,6.87
2016-03-26T03:18:10.941Z,6.89
2016-03-26T03:19:10.960Z,6.83
2016-03-26T03:20:10.947Z,6.78
2016-03-26T03:21:10.934Z,6.77
2016-03-26T03:22:10.937Z,6.75
2016-03-26T03:23:10.940Z,6.74
2016-03-26T03:24:10.942Z,6.8
2016-03-26T03:25:10.945Z,6.7
2016-03-26T03:26:10.948Z,6.75
2016-03-26T03:27:10.934Z,6.64
2016-03-26T03:28:10.937Z,6.65
2016-03-26T03:29:10.940Z,6.64
2016-03-26T03:30:10.943Z,6.62
2016-03-26T03:31:16.945Z,6.57
2016-03-26T03:32:10.979Z,6.59
2016-03-26T03:33:10.966Z,6.67
2016-03-26T03:34:10.954Z,6.6
2016-03-26T03:35:10.923Z,6.56
2016-03-26T03:36:10.959Z,6.72
2016-03-26T03:37:10.946Z,6.6
2016-03-26T03:38:10.949Z,6.64
2016-03-26T03:39:10.934Z,6.68
2016-03-26T03:40:10.936Z,6.59
2016-03-26T03:41:10.939Z,6.59
2016-03-26T03:42:11.004Z,6.52
2016-03-26T03:43:10.945Z,6.52
2016-03-26T03:44:11.009Z,6.52
2016-03-26T03:45:10.934Z,6.5
2016-03-26T03:46:10.936Z,6.5
2016-03-26T03:47:10.939Z,6.52
2016-03-26T03:48:10.785Z,6.39
2016-03-26T03:49:10.944Z,6.41
2016-03-26T03:50:10.947Z,6.34
2016-03-26T03:51:11.013Z,6.41
2016-03-26T03:52:10.937Z,6.34
2016-03-26T03:53:10.955Z,6.41
2016-03-26T03:54:10.943Z,6.39
2016-03-26T03:55:10.960Z,6.38
2016-03-26T03:56:10.948Z,6.47
2016-03-26T03:57:10.982Z,6.5
2016-03-26T03:58:10.937Z,6.47
2016-03-26T03:59:10.957Z,6.5
2016-03-26T04:00:10.959Z,6.49
2016-03-26T04:01:10.945Z,6.53
2016-03-26T04:02:10.949Z,6.54
2016-03-26T04:03:10.951Z,6.59
2016-03-26T04:04:10.953Z,6.49
2016-03-26T04:05:10.940Z,6.54
2016-03-26T04:06:10.959Z,6.43
2016-03-26T04:07:10.961Z,6.41
2016-03-26T04:08:10.965Z,6.41
2016-03-26T04:09:10.951Z,6.43
2016-03-26T04:10:10.953Z,6.43
2016-03-26T04:11:10.942Z,6.53
2016-03-26T04:12:10.944Z,6.41
2016-03-26T04:13:10.946Z,6.5
2016-03-26T04:14:10.950Z,6.59
2016-03-26T04:15:10.983Z,6.49
2016-03-26T04:16:10.939Z,6.57
2016-03-26T04:17:10.958Z,6.65
2016-03-26T04:18:10.944Z,6.62
2016-03-26T04:19:10.947Z,6.64
2016-03-26T04:20:10.950Z,6.6
2016-03-26T04:21:10.952Z,6.68
2016-03-26T04:22:10.955Z,6.7
2016-03-26T04:23:10.941Z,6.72
2016-03-26T04:24:10.992Z,6.78
2016-03-26T04:25:10.947Z,6.71
2016-03-26T04:26:10.950Z,6.75
2016-03-26T04:27:10.968Z,6.74
2016-03-26T04:28:10.940Z,6.77
2016-03-26T04:29:10.958Z,6.75
2016-03-26T04:30:10.945Z,6.78
2016-03-26T04:31:10.948Z,6.77
2016-03-26T04:32:10.951Z,6.75
2016-03-26T04:33:10.954Z,6.82
2016-03-26T04:34:10.956Z,6.82
2016-03-26T04:35:10.943Z,6.72
2016-03-26T04:36:10.962Z,6.82
2016-03-26T04:37:10.948Z,6.68
2016-03-26T04:38:10.967Z,6.72
2016-03-26T04:39:10.954Z,6.72
2016-03-26T04:40:10.956Z,6.68
2016-03-26T04:41:10.945Z,6.8
2016-03-26T04:42:10.947Z,6.72
2016-03-26T04:43:10.949Z,6.75
2016-03-26T04:44:10.952Z,6.75
2016-03-26T04:45:10.955Z,6.72
2016-03-26T04:46:10.945Z,6.77
2016-03-26T04:47:10.964Z,6.78
2016-03-26T04:48:10.951Z,6.72
2016-03-26T04:49:10.968Z,6.75
2016-03-26T04:50:10.941Z,6.85
2016-03-26T04:51:10.943Z,6.74
2016-03-26T04:52:10.961Z,6.82
2016-03-26T04:53:10.949Z,6.68
2016-03-26T04:54:10.967Z,6.68
2016-03-26T04:55:10.954Z,6.74
2016-03-26T04:56:10.972Z,6.7
2016-03-26T04:57:10.944Z,6.67
2016-03-26T04:58:10.946Z,6.67
2016-03-26T04:59:10.950Z,6.6
2016-03-26T05:00:10.952Z,6.6
2016-03-26T05:01:10.954Z,6.64
2016-03-26T05:02:10.958Z,6.64
2016-03-26T05:03:10.944Z,6.64
2016-03-26T05:04:10.963Z,6.64
2016-03-26T05:05:10.950Z,6.67
2016-03-26T05:06:10.952Z,6.67
2016-03-26T05:07:10.939Z,6.64
2016-03-26T05:08:10.958Z,6.71
2016-03-26T05:09:10.960Z,6.7
2016-03-26T05:10:10.963Z,6.83
2016-03-26T05:11:10.966Z,6.8
2016-03-26T05:12:10.969Z,6.78
2016-03-26T05:13:10.955Z,6.8
2016-03-26T05:14:10.958Z,6.77
2016-03-26T05:15:10.961Z,6.72
2016-03-26T05:16:10.979Z,6.7
2016-03-26T05:17:10.965Z,6.72
2016-03-26T05:18:10.953Z,6.82
2016-03-26T05:19:10.940Z,6.75
2016-03-26T05:20:10.959Z,6.72
2016-03-26T05:21:10.962Z,6.75
2016-03-26T05:22:10.964Z,6.72
2016-03-26T05:23:10.951Z,6.68
2016-03-26T05:24:10.954Z,6.75
2016-03-26T05:25:10.956Z,6.77
2016-03-26T05:26:10.959Z,6.75
2016-03-26T05:27:10.962Z,6.83
2016-03-26T05:28:10.964Z,6.75
2016-03-26T05:29:10.952Z,6.82
2016-03-26T05:30:10.954Z,6.72
2016-03-26T05:31:10.956Z,6.75
2016-03-26T05:32:10.960Z,6.77
2016-03-26T05:33:10.962Z,6.77
2016-03-26T05:34:10.949Z,6.78
2016-03-26T05:35:10.952Z,6.85
2016-03-26T05:36:10.955Z,6.78
2016-03-26T05:37:10.957Z,6.74
2016-03-26T05:38:10.961Z,6.74
2016-03-26T05:39:10.963Z,6.77
2016-03-26T05:40:10.950Z,6.83
2016-03-26T05:41:10.953Z,6.87
2016-03-26T05:42:10.955Z,6.83
2016-03-26T05:43:10.942Z,6.9
2016-03-26T05:44:10.977Z,6.92
2016-03-26T05:45:10.963Z,6.93
2016-03-26T05:46:10.966Z,6.95
2016-03-26T05:47:10.969Z,6.95
2016-03-26T05:48:10.956Z,6.96
2016-03-26T05:49:10.959Z,7.01
2016-03-26T05:50:10.993Z,7.05
2016-03-26T05:51:10.964Z,7.05
2016-03-26T05:52:10.967Z,7.07
2016-03-26T05:53:10.856Z,7.07
2016-03-26T05:54:10.975Z,7.11
2016-03-26T05:55:10.965Z,7.15
2016-03-26T05:56:10.899Z,7.11
2016-03-26T05:57:10.961Z,7.18
2016-03-26T05:58:10.981Z,7.21
2016-03-26T05:59:10.967Z,7.22
2016-03-26T06:00:10.969Z,7.15
2016-03-26T06:01:10.956Z,7.22
2016-03-26T06:02:10.959Z,7.28
2016-03-26T06:03:10.947Z,7.26
2016-03-26T06:04:10.949Z,7.29
2016-03-26T06:05:10.952Z,7.28
2016-03-26T06:06:10.950Z,7.31
2016-03-26T06:07:10.791Z,7.39
2016-03-26T06:08:10.925Z,7.37
2016-03-26T06:09:10.936Z,7.47
2016-03-26T06:10:10.930Z,7.5
2016-03-26T06:11:10.912Z,7.39
2016-03-26T06:12:10.912Z,7.48
2016-03-26T06:13:10.989Z,7.48
2016-03-26T06:14:10.895Z,7.58
2016-03-26T06:15:10.894Z,7.48
2016-03-26T06:16:10.895Z,7.61
2016-03-26T06:17:10.896Z,7.64
2016-03-26T06:18:10.898Z,7.67
2016-03-26T06:19:10.900Z,7.75
2016-03-26T06:20:10.902Z,7.77
2016-03-26T06:21:10.889Z,7.81
2016-03-26T06:22:10.891Z,7.81
2016-03-26T06:23:10.893Z,7.88
2016-03-26T06:24:10.879Z,7.93
2016-03-26T06:25:10.881Z,7.98
2016-03-26T06:26:10.900Z,7.96
2016-03-26T06:27:10.887Z,8.02
2016-03-26T06:28:11.046Z,7.98
2016-03-26T06:29:10.893Z,8.11
2016-03-26T06:30:10.880Z,8.09
2016-03-26T06:31:10.897Z,8.16
2016-03-26T06:32:10.886Z,8.14
2016-03-26T06:33:10.888Z,8.17
2016-03-26T06:34:10.874Z,8.27
2016-03-26T06:35:10.893Z,8.31
2016-03-26T06:36:10.896Z,8.38
2016-03-26T06:37:10.899Z,8.44
2016-03-26T06:38:10.901Z,8.53
2016-03-26T06:39:10.904Z,8.46
2016-03-26T06:40:10.890Z,8.46
2016-03-26T06:41:10.893Z,8.52
2016-03-26T06:42:10.896Z,8.39
2016-03-26T06:43:11.071Z,8.46
2016-03-26T06:44:10.901Z,8.52
2016-03-26T06:45:10.905Z,8.52
2016-03-26T06:46:10.891Z,8.57
2016-03-26T06:47:10.909Z,8.75
2016-03-26T06:48:10.897Z,8.96
2016-03-26T06:49:10.915Z,9.05
2016-03-26T06:50:10.901Z,9.3
2016-03-26T06:51:10.921Z,9.44
2016-03-26T06:52:10.907Z,9.59
2016-03-26T06:53:10.910Z,9.77
2016-03-26T06:54:10.897Z,9.91
2016-03-26T06:55:10.915Z,10.06
2016-03-26T06:56:10.903Z,10.3
2016-03-26T06:57:10.905Z,10.53
2016-03-26T06:58:11.158Z,10.67
2016-03-26T06:59:10.910Z,10.72
2016-03-26T07:00:10.914Z,11.01
2016-03-26T07:01:10.916Z,11.25
2016-03-26T07:02:10.919Z,11.44
2016-03-26T07:03:10.922Z,11.51
2016-03-26T07:04:10.908Z,11.53
2016-03-26T07:05:10.911Z,11.59
2016-03-26T07:06:10.914Z,11.71
2016-03-26T07:07:10.916Z,11.85
2016-03-26T07:08:10.919Z,11.97
2016-03-26T07:09:10.922Z,11.99
2016-03-26T07:10:10.909Z,12.18
2016-03-26T07:11:10.911Z,12.11
2016-03-26T07:12:10.913Z,12.26
2016-03-26T07:13:11.292Z,12.28
2016-03-26T07:14:10.919Z,12.3
2016-03-26T07:15:10.921Z,12.28
2016-03-26T07:16:10.925Z,12.17
2016-03-26T07:17:10.959Z,12.1
2016-03-26T07:18:10.930Z,12.11
2016-03-26T07:19:10.933Z,11.95
2016-03-26T07:20:10.935Z,11.8
2016-03-26T07:21:10.938Z,11.73
2016-03-26T07:22:10.926Z,11.59
2016-03-26T07:23:10.928Z,11.49
2016-03-26T07:24:10.931Z,11.52
2016-03-26T07:25:10.934Z,11.49
2016-03-26T07:26:10.937Z,11.52
2016-03-26T07:27:10.939Z,11.49
2016-03-26T07:28:10.972Z,11.62
2016-03-26T07:29:10.929Z,11.7
2016-03-26T07:30:10.947Z,11.65
2016-03-26T07:31:10.933Z,11.71
2016-03-26T07:32:10.937Z,11.71
2016-03-26T07:33:10.939Z,11.8
2016-03-26T07:34:10.942Z,11.76
2016-03-26T07:35:10.945Z,11.76
2016-03-26T07:36:10.947Z,11.68
2016-03-26T07:37:10.935Z,11.74
2016-03-26T07:38:10.938Z,11.81
2016-03-26T07:39:10.940Z,11.85
2016-03-26T07:40:10.943Z,11.88
2016-03-26T07:41:10.946Z,11.96
2016-03-26T07:42:10.949Z,12.14
2016-03-26T07:43:11.122Z,12.05
2016-03-26T07:44:10.954Z,12.14
2016-03-26T07:45:10.941Z,12.11
2016-03-26T07:46:10.959Z,11.99
2016-03-26T07:47:10.945Z,11.86
2016-03-26T07:48:10.949Z,11.8
2016-03-26T07:49:10.967Z,11.88
2016-03-26T07:50:10.954Z,11.91
2016-03-26T07:51:10.957Z,11.91
2016-03-26T07:52:10.959Z,11.99
2016-03-26T07:53:10.962Z,12.14
2016-03-26T07:54:10.965Z,12.25
2016-03-26T07:55:10.967Z,12.3
2016-03-26T07:56:10.954Z,12.48
2016-03-26T07:57:10.973Z,12.44
2016-03-26T07:58:11.117Z,12.48
2016-03-26T07:59:10.963Z,12.57
2016-03-26T08:00:10.965Z,12.72
2016-03-26T08:01:10.968Z,12.9
2016-03-26T08:02:10.970Z,13.02
2016-03-26T08:03:10.972Z,13.24
2016-03-26T08:04:10.976Z,13.21
2016-03-26T08:05:10.978Z,13.58
2016-03-26T08:06:10.981Z,13.82
2016-03-26T08:07:10.969Z,14.05
2016-03-26T08:08:10.986Z,14.37
2016-03-26T08:09:10.974Z,14.7
2016-03-26T08:10:10.977Z,15.02
2016-03-26T08:11:10.979Z,15.37
2016-03-26T08:12:10.982Z,15.59
2016-03-26T08:13:10.844Z,15.76
2016-03-26T08:14:10.987Z,15.87
2016-03-26T08:15:10.990Z,16.1
2016-03-26T08:16:10.993Z,16.36
2016-03-26T08:17:10.996Z,16.59
2016-03-26T08:18:10.998Z,16.95
2016-03-26T08:19:11.000Z,17.46
2016-03-26T08:20:11.019Z,17.93
2016-03-26T08:21:11.006Z,18.21
2016-03-26T08:22:11.009Z,18.34
2016-03-26T08:23:10.996Z,18.16
2016-03-26T08:24:10.857Z,17.94
2016-03-26T08:25:11.017Z,17.95
2016-03-26T08:26:11.004Z,17.86
2016-03-26T08:27:11.007Z,18
2016-03-26T08:28:11.072Z,17.95
2016-03-26T08:29:11.028Z,17.94
2016-03-26T08:30:11.031Z,17.93
2016-03-26T08:31:11.048Z,17.86
2016-03-26T08:32:11.051Z,17.72
2016-03-26T08:33:11.039Z,17.31
2016-03-26T08:34:11.025Z,17.1
2016-03-26T08:35:11.044Z,16.91
2016-03-26T08:36:11.030Z,16.97
2016-03-26T08:37:11.050Z,17.05
2016-03-26T08:38:11.036Z,17.13
2016-03-26T08:39:11.038Z,17.17
2016-03-26T08:40:11.058Z,17.24
2016-03-26T08:41:11.048Z,17.31
2016-03-26T08:42:11.051Z,17.63
2016-03-26T08:43:11.116Z,17.97
2016-03-26T08:44:11.056Z,18.13
2016-03-26T08:45:11.059Z,18.37
2016-03-26T08:46:11.061Z,18.34
2016-03-26T08:47:11.064Z,18.7
2016-03-26T08:48:11.067Z,18.92
2016-03-26T08:49:11.085Z,19.38
2016-03-26T08:50:11.135Z,19.52
2016-03-26T08:51:11.075Z,19.59
2016-03-26T08:52:11.078Z,19.49
2016-03-26T08:53:11.080Z,19.48
2016-03-26T08:54:11.083Z,19.47
2016-03-26T08:55:11.086Z,19.72
2016-03-26T08:56:11.088Z,20.15
2016-03-26T08:57:11.092Z,20.88
2016-03-26T08:58:11.156Z,21.5
2016-03-26T08:59:11.097Z,21.91
2016-03-26T09:00:11.116Z,22.78
2016-03-26T09:01:11.102Z,23.69
2016-03-26T09:02:11.120Z,24.68
2016-03-26T09:03:11.123Z,25.73
2016-03-26T09:04:11.126Z,26.59
2016-03-26T09:05:11.129Z,27.07
2016-03-26T09:06:11.115Z,27.29
2016-03-26T09:07:11.134Z,27.58
2016-03-26T09:08:11.136Z,28.12
2016-03-26T09:09:11.140Z,28.34
2016-03-26T09:10:11.126Z,28.08
2016-03-26T09:11:11.145Z,27.63
2016-03-26T09:12:11.148Z,26.93
2016-03-26T09:13:11.025Z,26.08
2016-03-26T09:14:11.153Z,25.12
2016-03-26T09:15:11.155Z,24.13
2016-03-26T09:16:11.173Z,23.2
2016-03-26T09:17:11.176Z,22.52
2016-03-26T09:18:11.179Z,21.68
2016-03-26T09:19:11.166Z,21.05
2016-03-26T09:20:11.169Z,20.77
2016-03-26T09:21:11.187Z,21.2
2016-03-26T09:22:11.189Z,22
2016-03-26T09:23:11.192Z,23.21
2016-03-26T09:24:11.195Z,24.53
2016-03-26T09:25:11.197Z,25.7
2016-03-26T09:26:11.200Z,26.82
2016-03-26T09:27:11.203Z,27.86
2016-03-26T09:28:11.205Z,28.6
2016-03-26T09:29:11.208Z,29.27
2016-03-26T09:30:11.211Z,29.86
2016-03-26T09:31:11.213Z,30.52
2016-03-26T09:32:11.216Z,30.8
2016-03-26T09:33:11.219Z,30.93
2016-03-26T09:34:11.222Z,30.98
2016-03-26T09:35:11.224Z,30.88
2016-03-26T09:36:11.243Z,30.61
2016-03-26T09:37:11.246Z,29.96
2016-03-26T09:38:11.248Z,29.12
2016-03-26T09:39:11.235Z,27.9
2016-03-26T09:40:11.238Z,26.82
2016-03-26T09:41:11.256Z,25.88
2016-03-26T09:42:11.259Z,24.97
2016-03-26T09:43:11.262Z,24.29
2016-03-26T09:44:11.264Z,23.59
2016-03-26T09:45:11.267Z,22.78
2016-03-26T09:46:11.269Z,22.04
2016-03-26T09:47:11.272Z,21.59
2016-03-26T09:48:11.275Z,21.04
2016-03-26T09:49:11.277Z,20.5
2016-03-26T09:50:11.280Z,20.07
2016-03-26T09:51:11.283Z,19.77
2016-03-26T09:52:11.286Z,19.52
2016-03-26T09:53:11.303Z,19.27
2016-03-26T09:54:11.306Z,19.08
2016-03-26T09:55:11.309Z,19.01
2016-03-26T09:56:11.312Z,18.83
2016-03-26T09:57:11.314Z,18.7
2016-03-26T09:58:11.317Z,18.55
2016-03-26T09:59:11.320Z,18.39
2016-03-26T10:00:11.322Z,18.24
2016-03-26T10:01:11.325Z,18.15
2016-03-26T10:02:11.328Z,17.95
2016-03-26T10:03:11.330Z,17.73
2016-03-26T10:04:11.334Z,17.63
2016-03-26T10:05:11.336Z,17.34
2016-03-26T10:06:11.354Z,17.19
2016-03-26T10:07:11.357Z,17.14
2016-03-26T10:08:11.344Z,16.92
2016-03-26T10:09:11.347Z,16.72
2016-03-26T10:10:11.365Z,16.66
2016-03-26T10:11:11.368Z,16.61
2016-03-26T10:12:11.370Z,16.55
2016-03-26T10:13:11.218Z,16.57
2016-03-26T10:14:11.376Z,16.68
2016-03-26T10:15:11.379Z,16.66
2016-03-26T10:16:11.382Z,16.73
2016-03-26T10:17:11.385Z,16.92
2016-03-26T10:18:11.231Z,17.17
2016-03-26T10:19:11.389Z,17.24
2016-03-26T10:20:11.392Z,17.34
2016-03-26T10:21:11.395Z,17.53
2016-03-26T10:22:11.414Z,17.75
2016-03-26T10:23:11.416Z,17.82
2016-03-26T10:24:11.419Z,17.87
2016-03-26T10:25:11.422Z,17.94
2016-03-26T10:26:11.424Z,18.02
2016-03-26T10:27:11.427Z,17.88
2016-03-26T10:28:11.430Z,17.78
2016-03-26T10:29:11.448Z,17.93
2016-03-26T10:30:11.435Z,17.82
2016-03-26T10:31:11.438Z,17.86
2016-03-26T10:32:11.440Z,17.86
2016-03-26T10:33:11.458Z,17.68
2016-03-26T10:34:11.446Z,17.6
2016-03-26T10:35:11.464Z,17.35
2016-03-26T10:36:11.466Z,17.27
2016-03-26T10:37:11.469Z,17.12
2016-03-26T10:38:11.457Z,16.84
2016-03-26T10:39:11.474Z,16.8
2016-03-26T10:40:11.477Z,16.5
2016-03-26T10:41:11.480Z,16.41
2016-03-26T10:42:11.504Z,16.24
2016-03-26T10:43:11.490Z,16.26
2016-03-26T10:44:11.493Z,16.13
2016-03-26T10:45:11.495Z,15.92
2016-03-26T10:46:11.498Z,15.96
2016-03-26T10:47:11.486Z,15.96
2016-03-26T10:48:11.504Z,15.87
2016-03-26T10:49:11.506Z,15.87
2016-03-26T10:50:11.525Z,15.81
2016-03-26T10:51:11.511Z,15.87
2016-03-26T10:52:11.515Z,15.88
2016-03-26T10:53:11.517Z,15.73
2016-03-26T10:54:11.505Z,15.57
2016-03-26T10:55:11.522Z,15.39
2016-03-26T10:56:11.525Z,15.23
2016-03-26T10:57:11.544Z,15.22
2016-03-26T10:58:11.531Z,15.17
2016-03-26T10:59:11.533Z,15.1
2016-03-26T11:00:11.552Z,15.15
2016-03-26T11:01:11.554Z,15.12
2016-03-26T11:02:11.572Z,14.97
2016-03-26T11:03:11.560Z,14.81
2016-03-26T11:04:11.562Z,14.73
2016-03-26T11:05:11.565Z,14.61
2016-03-26T11:06:11.568Z,14.49
2016-03-26T11:07:11.586Z,14.48
2016-03-26T11:08:11.557Z,14.41
2016-03-26T11:09:11.560Z,14.44
2016-03-26T11:10:11.579Z,14.52
2016-03-26T11:11:11.582Z,14.55
2016-03-26T11:12:11.599Z,14.63
2016-03-26T11:13:11.602Z,14.68
2016-03-26T11:14:11.479Z,14.85
2016-03-26T11:15:11.592Z,14.9
2016-03-26T11:16:11.595Z,14.94
2016-03-26T11:17:11.598Z,14.89
2016-03-26T11:18:11.615Z,14.79
2016-03-26T11:19:11.603Z,14.77
2016-03-26T11:20:11.621Z,14.82
2016-03-26T11:21:11.623Z,14.79
2016-03-26T11:22:11.611Z,14.81
2016-03-26T11:23:11.629Z,14.79
2016-03-26T11:24:11.631Z,14.89
2016-03-26T11:25:11.634Z,14.9
2016-03-26T11:26:11.637Z,14.79
2016-03-26T11:27:11.639Z,14.85
2016-03-26T11:28:11.642Z,14.89
2016-03-26T11:29:11.927Z,14.77
2016-03-26T11:30:11.648Z,14.79
2016-03-26T11:31:11.650Z,14.87
2016-03-26T11:32:11.653Z,14.79
2016-03-26T11:33:11.655Z,14.82
2016-03-26T11:34:11.658Z,14.81
2016-03-26T11:35:11.661Z,14.73
2016-03-26T11:36:11.680Z,14.53
2016-03-26T11:37:11.682Z,14.48
2016-03-26T11:38:11.685Z,14.48
2016-03-26T11:39:11.687Z,14.38
2016-03-26T11:40:11.691Z,14.38
2016-03-26T11:41:11.693Z,14.3
2016-03-26T11:42:11.696Z,14.3
2016-03-26T11:43:11.698Z,14.18
2016-03-26T11:44:11.935Z,14.33
2016-03-26T11:45:11.703Z,14.31
2016-03-26T11:46:11.707Z,14.2
2016-03-26T11:47:11.709Z,14.07
2016-03-26T11:48:11.712Z,13.95
2016-03-26T11:49:11.698Z,13.86
2016-03-26T11:50:11.702Z,13.95
2016-03-26T11:51:12.064Z,13.91
2016-03-26T11:52:11.723Z,14
2016-03-26T11:53:11.725Z,14.05
2016-03-26T11:54:11.728Z,14.04
2016-03-26T11:55:11.730Z,14.12
2016-03-26T11:56:11.734Z,14.15
2016-03-26T11:57:11.736Z,14.07
2016-03-26T11:58:11.755Z,14.03
2016-03-26T11:59:12.085Z,13.97
2016-03-26T12:00:11.745Z,13.85
2016-03-26T12:01:11.747Z,13.83
2016-03-26T12:02:11.750Z,13.85
2016-03-26T12:03:11.752Z,13.95
2016-03-26T12:04:11.755Z,14.11
2016-03-26T12:05:11.757Z,14.04
2016-03-26T12:06:11.760Z,14.04
2016-03-26T12:07:11.763Z,14.13
2016-03-26T12:08:11.782Z,14.13
2016-03-26T12:09:11.784Z,14.13
2016-03-26T12:10:11.787Z,14.15
2016-03-26T12:11:11.790Z,14.23
2016-03-26T12:12:11.793Z,14.23
2016-03-26T12:13:11.779Z,14.3
2016-03-26T12:14:12.187Z,14.34
2016-03-26T12:15:11.784Z,14.36
2016-03-26T12:16:11.803Z,14.26
2016-03-26T12:17:11.790Z,14.26
2016-03-26T12:18:11.840Z,14.3
2016-03-26T12:19:11.811Z,14.23
2016-03-26T12:20:11.829Z,14.36
2016-03-26T12:21:11.801Z,14.31
2016-03-26T12:22:11.820Z,14.23
2016-03-26T12:23:11.806Z,14.15
2016-03-26T12:24:11.825Z,14.15
2016-03-26T12:25:11.827Z,14.12
2016-03-26T12:26:11.830Z,14.16
2016-03-26T12:27:11.832Z,14.07
2016-03-26T12:28:11.836Z,13.98
2016-03-26T12:29:11.931Z,13.98
2016-03-26T12:30:11.841Z,14.03
2016-03-26T12:31:11.843Z,14.03
2016-03-26T12:32:11.847Z,14.04
2016-03-26T12:33:11.832Z,13.97
2016-03-26T12:34:11.852Z,13.95
2016-03-26T12:35:11.854Z,13.95
2016-03-26T12:36:11.857Z,13.97
2016-03-26T12:37:11.859Z,13.97
2016-03-26T12:38:11.863Z,13.98
2016-03-26T12:39:11.880Z,13.98
2016-03-26T12:40:11.883Z,13.98
2016-03-26T12:41:11.870Z,13.95
2016-03-26T12:42:11.873Z,13.91
2016-03-26T12:43:11.876Z,13.79
2016-03-26T12:44:11.785Z,13.78
2016-03-26T12:45:11.881Z,13.71
2016-03-26T12:46:11.884Z,13.65
2016-03-26T12:47:11.887Z,13.65
2016-03-26T12:48:11.889Z,13.76
2016-03-26T12:49:11.892Z,13.76
2016-03-26T12:50:11.895Z,13.75
2016-03-26T12:51:11.897Z,13.83
2016-03-26T12:52:11.900Z,13.79
2016-03-26T12:53:11.903Z,13.75
2016-03-26T12:54:11.905Z,13.76
2016-03-26T12:55:11.923Z,13.71
2016-03-26T12:56:11.926Z,13.78
2016-03-26T12:57:11.913Z,13.73
2016-03-26T12:58:11.916Z,13.68
2016-03-26T12:59:11.778Z,13.68
2016-03-26T13:00:11.922Z,13.64
2016-03-26T13:01:11.940Z,13.64
2016-03-26T13:02:11.927Z,13.58
2016-03-26T13:03:11.929Z,13.68
2016-03-26T13:04:11.932Z,13.71
2016-03-26T13:05:11.935Z,13.75
2016-03-26T13:06:11.938Z,13.73
2016-03-26T13:07:11.941Z,13.73
2016-03-26T13:08:11.943Z,13.7
2016-03-26T13:09:11.946Z,13.68